Almont, ND

11:34 AM MDT on July 23, 2014 (GMT -0600)
Glen Ullin Rgnl, Glen Ullin, (KD57) Elev 2087 ft | 46.81 °N, 101.86 °W | Change Station

Current weather conditions updated 19 minutes ago

Clear
Clear
77 °F
Feels Like 77 °F
N
16
Wind Variable Wind from SE
Gusts 23 mph

Today is forecast to be nearly the same temperature as yesterday. A few showers developing late tonight.

Today
High -- | Low -- °F
--% Chance of Precip.
Yesterday
High -- | Low -- °F
Precip. -- in
5:15 AM 8:28 PM
Waning Crescent, 9% visible
Pressure 30.22 in
Visibility 10.0 miles
Clouds Mostly Cloudy 6000 ft
Dew Point 61 °F
Humidity 57%
Rainfall 0.00 in
Snow Depth Not available.
UV 5 out of 12
Pollen 6.70 out of 12
Air Quality Not available.
Flu Activity Not available.
METAR KD57 231715Z AUTO 14014G20KT 10SM BKN060 25/16 A3022 RMK AO2

More Conditions Fewer Conditions

Pressure 30.22 in
Visibility 10.0 miles
Clouds Mostly Cloudy 6000 ft
Dew Point 61 °F
Humidity 57%
Rainfall 0.00 in
Snow Depth Not available.
UV 5 out of 12
Pollen 6.70 out of 12
Air Quality Not available.
Flu Activity Not available.
METAR KD57 231715Z AUTO 14014G20KT 10SM BKN060 25/16 A3022 RMK AO2

More Conditions Fewer Conditions

10-Day Weather Forecast

Almanac

Astronomy

Jul. 23, 2014 Rise Set
Actual Time 5:15 AM MDT 8:28 PM MDT
Civil Twilight 4:39 AM MDT 9:05 PM MDT
Nautical Twilight 3:51 AM MDT 9:52 PM MDT
Astronomical Twilight 2:52 AM MDT 10:51 PM MDT
Moon 2:38 AM MDT 5:57 PM MDT
Length of Visible Light 16h 25m
Length of Day
15h 12m
Tomorrow will be 2m 13s shorter.
Waning Crescent, 9% of the Moon is Illuminated
Today
Waning Crescent
Jul 26
New
Aug 3
First Quarter
Aug 10
Full
Aug 17
Last Quarter

Today's Extremes

State Highs State Lows

Community

WunderPhotos

Upload Photos

1,736,684 photos uploaded!

Nearby

Snow Depth

Station Depth Elevation
No new snow has been reported.

Earthquake Activity

City Distance Mag. Time & Date
No recent earthquake activity has been reported nearby.
Minimum magnitude displayed is 2.5.

Coastal Water Temperatures

Place Temperature
No Stations Reporting

Nearby Weather Stations

Station Location Temp. Heat Index Dew Point Humidity Wind Precip. Elev Updated Type
HADS LAKE TSCHIDA NEAR GLEN ULLIN 15S ND, Elgin, ND 72 °F - - - North  at  - 0.00 in / hr 2133 ft 10:30 AM MDT MADIS
Elgin, ND 77.9 °F 80 °F 62 °F 59% South  at  7.0 mph 0.00 in / hr 2354 ft 11:28 AM MDT Normal

Show More Stations Show Fewer Stations